Date,TemperatureHighF,TemperatureAvgF,TemperatureLowF,DewpointHighF,DewpointAvgF,DewpointLowF,HumidityHigh,HumidityAvg,HumidityLow,PressureMaxIn,PressureMinIn,WindSpeedMaxMPH,WindSpeedAvgMPH,GustSpeedMaxMPH,PrecipitationSumIn
2013-2-1,38.0,30.2,23.0,21.0,17.9,12.0,79,61,47,0.00,40.00,8,6,17,0.00
2013-2-2,42.0,31.8,25.0,22.0,14.5,4.0,66,50,22,0.00,40.00,9,4,14,0.00
2013-2-3,40.0,31.7,27.0,27.0,20.6,15.0,91,65,42,0.00,40.00,9,5,17,0.00
2013-2-4,40.0,30.8,22.0,24.0,16.7,7.0,87,58,29,0.00,40.00,15,7,28,0.00
2013-2-5,47.0,34.4,24.0,25.0,15.4,6.0,77,47,29,0.00,40.00,15,4,28,0.00
2013-2-6,47.0,34.2,27.0,25.0,22.2,20.0,78,63,36,0.00,40.00,8,3,15,0.00
2013-2-7,43.0,32.2,21.0,21.0,16.4,10.0,78,54,35,0.00,40.00,13,7,23,0.00
2013-2-8,45.0,36.1,29.0,19.0,13.1,5.0,54,39,24,0.00,40.00,19,13,37,0.00
2013-2-9,29.0,21.8,18.0,20.0,16.3,12.0,90,80,49,0.00,40.00,9,5,26,0.24
2013-2-10,30.0,20.5,17.0,24.0,16.6,14.0,90,85,69,0.00,40.00,12,5,19,0.32
2013-2-11,25.0,17.4,11.0,19.0,13.2,5.0,90,83,74,0.00,40.00,12,5,19,0.15
2013-2-12,24.0,15.1,8.0,12.0,6.3,1.0,78,68,55,0.00,40.00,17,10,25,0.01
2013-2-13,32.0,22.3,14.0,17.0,11.0,5.0,73,62,51,0.00,40.00,13,9,25,0.00
2013-2-14,37.0,26.9,20.0,17.0,12.5,5.0,69,55,40,0.00,40.00,15,10,26,0.00
2013-2-15,37.0,27.4,18.0,12.0,6.9,2.0,61,43,27,0.00,40.00,13,8,23,0.00
2013-2-16,41.0,33.6,24.0,12.0,5.5,-3.0,44,30,23,0.00,40.00,9,6,21,0.00
2013-2-17,44.0,34.3,25.0,14.0,6.1,-6.0,53,31,19,0.00,40.00,11,5,20,0.00
2013-2-18,33.0,24.1,14.0,14.0,1.8,-8.0,58,39,22,0.00,40.00,13,8,22,0.00
2013-2-19,43.0,33.4,22.0,7.0,0.3,-10.0,35,24,16,0.00,40.00,12,7,25,0.00
2013-2-20,31.0,25.7,17.0,25.0,15.0,4.0,90,68,31,0.00,40.00,14,4,24,0.16
2013-2-21,30.0,23.1,18.0,24.0,19.9,15.0,93,87,70,0.00,40.00,11,6,18,0.03
2013-2-22,25.0,20.0,15.0,20.0,14.6,7.0,93,80,50,0.00,40.00,13,7,25,0.07
2013-2-23,31.0,22.4,12.0,19.0,8.4,0.0,89,56,34,0.00,40.00,14,6,23,0.07
2013-2-24,28.0,15.9,7.0,14.0,5.1,0.0,89,63,41,0.00,40.00,14,8,24,0.07
2013-2-25,33.0,22.8,13.0,10.0,5.1,2.0,69,49,27,0.00,40.00,18,11,30,0.00
2013-2-26,26.0,20.6,15.0,14.0,5.9,0.0,78,54,35,0.00,40.00,17,9,34,0.00
2013-2-27,33.0,21.3,11.0,6.0,1.0,-5.0,66,43,23,0.00,40.00,10,6,22,0.00
2013-2-28,37.0,25.3,16.0,9.0,1.4,-7.0,52,36,18,0.00,40.00,15,10,27,0.00